Time;durP1;ratioP1;P1;durP2;ratioP2;P2;SDS_P1;SDS_P2;PMS_P1;PMS_P2;Temp;Humidity;BMP_temperature;BMP_pressure;BME280_temperature;BME280_humidity;BME280_pressure;Samples;Min_cycle;Max_cycle;Signal;HPM_P1;HPM_P2
2023/05/06 00:00:54;;;;;;;;;;;;;;;14.19;61.84;101315.94;4114489;28;20393;-66
2023/05/06 00:02:58;;;;;;;;;;;;;;;14.12;62.40;101318.56;4114459;28;20017;-65
2023/05/06 00:05:02;;;;;;;;;;;;;;;14.13;63.11;101320.22;4114270;28;20020;-66
2023/05/06 00:07:05;;;;;;;;;;;;;;;14.12;63.08;101307.69;4115219;28;20017;-66
2023/05/06 00:09:09;;;;;;;;;;;;;;;14.17;63.30;101307.09;4115018;28;20017;-65
2023/05/06 00:11:12;;;;;;;;;;;;;;;14.22;63.56;101302.81;4113875;28;20037;-65
2023/05/06 00:13:14;;;;;;;;;;;;;;;14.27;63.53;101307.69;4114823;28;19936;-64
2023/05/06 00:15:16;;;;;;;;;;;;;;;14.31;63.64;101297.25;4115328;28;20028;-65
2023/05/06 00:17:18;;;;;;;;;;;;;;;14.32;63.72;101307.09;4113413;28;20479;-65
2023/05/06 00:19:20;;;;;;;;;;;;;;;14.32;63.59;101307.09;4114741;28;20025;-64
2023/05/06 00:21:22;;;;;;;;;;;;;;;14.33;63.82;101300.66;4113561;28;20013;-64
2023/05/06 00:23:26;;;;;;;;;;;;;;;14.32;63.89;101309.81;4114274;28;20009;-64
2023/05/06 00:25:28;;;;;;;;;;;;;;;14.28;63.68;101322.94;4114574;28;20028;-65
2023/05/06 00:27:30;;;;;;;;;;;;;;;14.19;64.20;101326.78;4114624;28;20009;-65
2023/05/06 00:29:34;;;;;;;;;;;;;;;14.10;64.57;101327.91;4114260;28;20029;-65
2023/05/06 00:31:38;;;;;;;;;;;;;;;14.03;64.04;101325.09;4114254;28;20029;-65
2023/05/06 00:33:40;;;;;;;;;;;;;;;14.00;64.65;101325.47;4112771;28;19926;-66
2023/05/06 00:35:42;;;;;;;;;;;;;;;13.99;64.54;101329.19;4112717;28;20037;-66
2023/05/06 00:37:45;;;;;;;;;;;;;;;13.91;64.89;101324.69;4115232;28;20345;-66
2023/05/06 00:39:49;;;;;;;;;;;;;;;13.89;65.52;101318.63;4120989;28;20020;-66
2023/05/06 00:41:50;;;;;;;;;;;;;;;13.87;65.52;101310.66;4114579;28;20385;-65
2023/05/06 00:43:53;;;;;;;;;;;;;;;13.86;65.42;101308.94;4114237;28;20024;-65
2023/05/06 00:45:55;;;;;;;;;;;;;;;13.85;65.50;101295.56;4113690;28;20037;-65
2023/05/06 00:47:57;;;;;;;;;;;;;;;13.85;65.43;101290.13;4114651;28;20585;-65
2023/05/06 00:49:59;;;;;;;;;;;;;;;13.88;65.59;101284.34;4114231;28;20017;-64
2023/05/06 00:52:01;;;;;;;;;;;;;;;13.91;65.64;101278.53;4111798;28;20254;-64
2023/05/06 00:54:03;;;;;;;;;;;;;;;13.92;65.63;101269.38;4115338;28;20615;-65
2023/05/06 00:56:07;;;;;;;;;;;;;;;13.91;65.46;101270.38;4114920;28;20025;-64
2023/05/06 00:58:09;;;;;;;;;;;;;;;13.88;65.20;101271.59;4114097;28;20658;-65
2023/05/06 01:00:11;;;;;;;;;;;;;;;13.85;65.20;101260.25;4114541;28;20017;-65
2023/05/06 01:02:13;;;;;;;;;;;;;;;13.82;65.43;101256.06;4111909;28;20419;-65
2023/05/06 01:04:15;;;;;;;;;;;;;;;13.80;65.34;101255.38;4114563;28;20002;-65
2023/05/06 01:06:19;;;;;;;;;;;;;;;13.73;65.34;101259.91;4113820;28;20021;-64
2023/05/06 01:08:21;;;;;;;;;;;;;;;13.69;65.41;101266.72;4120375;28;20096;-65
2023/05/06 01:10:24;;;;;;;;;;;;;;;13.61;65.89;101256.78;4114346;28;20029;-65
2023/05/06 01:12:29;;;;;;;;;;;;;;;13.66;66.41;101253.50;4114090;28;20029;-66
2023/05/06 01:14:33;;;;;;;;;;;;;;;13.66;66.17;101251.63;4111580;28;19958;-65
2023/05/06 01:16:35;;;;;;;;;;;;;;;13.64;66.50;101244.72;4114221;28;20021;-65
2023/05/06 01:18:37;;;;;;;;;;;;;;;13.58;66.41;101246.28;4112822;28;20486;-66
2023/05/06 01:20:40;;;;;;;;;;;;;;;13.58;66.69;101237.31;4114713;28;20028;-66
2023/05/06 01:22:42;;;;;;;;;;;;;;;13.50;66.40;101235.53;4112869;28;20009;-65
2023/05/06 01:24:46;;;;;;;;;;;;;;;13.46;67.12;101232.34;4114253;28;20021;-66
2023/05/06 01:26:48;;;;;;;;;;;;;;;13.40;67.18;101230.34;4114073;28;20033;-65
2023/05/06 01:28:50;;;;;;;;;;;;;;;13.37;67.13;101236.16;4120866;28;20029;-65
2023/05/06 01:30:55;;;;;;;;;;;;;;;13.36;67.54;101228.19;4112838;28;20032;-65
2023/05/06 01:32:58;;;;;;;;;;;;;;;13.29;67.41;101226.19;4120384;28;20045;-65
2023/05/06 01:35:08;;;;;;;;;;;;;;;13.27;67.89;101221.94;4105053;28;20169;-65
2023/05/06 01:37:14;;;;;;;;;;;;;;;13.27;67.77;101222.78;4113593;28;20016;-65
2023/05/06 01:39:17;;;;;;;;;;;;;;;13.28;67.73;101223.66;4120702;28;20013;-65
2023/05/06 01:41:20;;;;;;;;;;;;;;;13.26;68.00;101231.97;4114064;28;20024;-65
2023/05/06 01:43:22;;;;;;;;;;;;;;;13.23;68.08;101232.34;4113991;28;20025;-65
2023/05/06 01:45:25;;;;;;;;;;;;;;;13.21;68.21;101226.22;4113422;28;20036;-65
2023/05/06 01:47:27;;;;;;;;;;;;;;;13.17;68.17;101235.78;4113722;28;20013;-65
2023/05/06 01:49:30;;;;;;;;;;;;;;;13.15;68.34;101221.56;4113707;28;20025;-65
2023/05/06 01:51:32;;;;;;;;;;;;;;;13.15;68.27;101227.00;4111519;28;20017;-65
2023/05/06 01:53:34;;;;;;;;;;;;;;;13.14;68.51;101214.44;4112642;28;20024;-65
2023/05/06 01:55:37;;;;;;;;;;;;;;;13.17;68.23;101222.22;4114072;28;20421;-65
2023/05/06 01:57:43;;;;;;;;;;;;;;;13.19;68.42;101213.91;4111923;28;20042;-65
2023/05/06 01:59:44;;;;;;;;;;;;;;;13.20;68.35;101210.13;4113783;28;20025;-65
2023/05/06 02:01:46;;;;;;;;;;;;;;;13.21;68.57;101214.53;4111068;28;20033;-64
2023/05/06 02:03:48;;;;;;;;;;;;;;;13.20;68.21;101213.72;4113824;28;20053;-65
2023/05/06 02:05:51;;;;;;;;;;;;;;;13.20;68.18;101208.28;4111737;28;20021;-65
2023/05/06 02:07:53;;;;;;;;;;;;;;;13.23;68.34;101216.06;4111499;28;19960;-65
2023/05/06 02:09:55;;;;;;;;;;;;;;;13.25;68.65;101211.28;4112392;28;20024;-65
2023/05/06 02:11:57;;;;;;;;;;;;;;;13.27;68.32;101214.66;4112594;28;20029;-65
2023/05/06 02:14:01;;;;;;;;;;;;;;;13.21;67.44;101217.25;4119244;28;20096;-65
2023/05/06 02:16:05;;;;;;;;;;;;;;;13.10;68.11;101221.25;4120642;28;20035;-65
2023/05/06 02:18:07;;;;;;;;;;;;;;;13.07;68.08;101229.75;4111956;28;20025;-65
2023/05/06 02:20:10;;;;;;;;;;;;;;;13.11;68.40;101233.78;4112169;28;20029;-65
2023/05/06 02:22:12;;;;;;;;;;;;;;;13.05;67.78;101232.63;4113143;28;20094;-65
2023/05/06 02:24:14;;;;;;;;;;;;;;;13.01;68.53;101235.88;4108654;28;20459;-65
2023/05/06 02:26:16;;;;;;;;;;;;;;;12.99;68.69;101230.66;4118715;28;20456;-65
2023/05/06 02:28:18;;;;;;;;;;;;;;;12.97;68.38;101232.69;4117905;28;20024;-66
2023/05/06 02:30:21;;;;;;;;;;;;;;;12.88;68.44;101237.31;4117500;28;20396;-65
2023/05/06 02:32:24;;;;;;;;;;;;;;;12.85;68.79;101228.72;4125778;28;20033;-64
2023/05/06 02:34:25;;;;;;;;;;;;;;;12.80;69.19;101229.25;4125582;28;20404;-65
2023/05/06 02:36:28;;;;;;;;;;;;;;;12.76;69.08;101228.78;4125145;28;20382;-65
2023/05/06 02:38:30;;;;;;;;;;;;;;;12.78;69.56;101229.44;4109702;28;20037;-64
2023/05/06 02:40:32;;;;;;;;;;;;;;;12.84;69.49;101232.47;4109265;28;20025;-65
2023/05/06 02:42:34;;;;;;;;;;;;;;;12.79;69.02;101228.44;4118338;28;20020;-65
2023/05/06 02:44:36;;;;;;;;;;;;;;;12.82;69.37;101231.78;4117882;28;20017;-64
2023/05/06 02:46:39;;;;;;;;;;;;;;;12.84;69.20;101232.47;4117689;28;20480;-64
2023/05/06 02:48:42;;;;;;;;;;;;;;;12.78;69.08;101234.84;4118061;28;20020;-64
2023/05/06 02:50:44;;;;;;;;;;;;;;;12.78;69.18;101232.16;4116711;28;20484;-64
2023/05/06 02:52:46;;;;;;;;;;;;;;;12.79;69.44;101238.44;4124484;28;19969;-64
2023/05/06 02:54:48;;;;;;;;;;;;;;;12.72;69.64;101238.28;4124716;28;20359;-64
2023/05/06 02:56:51;;;;;;;;;;;;;;;12.69;69.71;101233.22;4118202;28;20454;-64
2023/05/06 02:58:53;;;;;;;;;;;;;;;12.72;69.97;101235.56;4116581;28;20619;-64
2023/05/06 03:00:55;;;;;;;;;;;;;;;12.73;69.18;101231.03;4118337;28;20017;-64
2023/05/06 03:02:58;;;;;;;;;;;;;;;12.74;69.29;101225.41;4118170;28;20452;-64
2023/05/06 03:05:03;;;;;;;;;;;;;;;12.75;69.39;101226.25;4118230;28;20018;-64
2023/05/06 03:07:05;;;;;;;;;;;;;;;12.72;68.92;101222.03;4116326;28;20374;-64
2023/05/06 03:09:08;;;;;;;;;;;;;;;12.72;68.98;101218.47;4116549;28;20024;-64
2023/05/06 03:11:10;;;;;;;;;;;;;;;12.68;68.98;101220.72;4116567;28;20021;-64
2023/05/06 03:13:13;;;;;;;;;;;;;;;12.65;69.34;101217.50;4109258;28;20005;-64
2023/05/06 03:15:15;;;;;;;;;;;;;;;12.67;69.56;101218.19;4124728;28;20376;-64
2023/05/06 03:17:17;;;;;;;;;;;;;;;12.64;69.38;101213.13;4125082;28;20024;-64
2023/05/06 03:19:21;;;;;;;;;;;;;;;12.59;69.11;101209.06;4125425;28;20236;-64
2023/05/06 03:21:23;;;;;;;;;;;;;;;12.53;69.31;101209.78;4132479;28;20029;-64
2023/05/06 03:23:27;;;;;;;;;;;;;;;12.50;69.21;101209.31;4124103;28;20034;-64
2023/05/06 03:25:30;;;;;;;;;;;;;;;12.48;69.57;101206.78;4115866;28;20017;-66
2023/05/06 03:27:34;;;;;;;;;;;;;;;12.49;69.80;101210.31;4115967;28;20516;-64
2023/05/06 03:29:42;;;;;;;;;;;;;;;12.47;69.29;101212.38;4116396;28;20065;-64
2023/05/06 03:31:48;;;;;;;;;;;;;;;12.48;69.49;101206.78;4115802;28;20016;-64
2023/05/06 03:33:50;;;;;;;;;;;;;;;12.47;69.63;101206.94;4118791;28;20488;-65
2023/05/06 03:35:55;;;;;;;;;;;;;;;12.43;69.31;101206.47;4123657;28;20033;-64
2023/05/06 03:37:57;;;;;;;;;;;;;;;12.44;69.50;101210.84;4121799;28;20008;-65
2023/05/06 03:40:04;;;;;;;;;;;;;;;12.48;69.54;101206.78;4122469;28;20009;-64
2023/05/06 03:42:07;;;;;;;;;;;;;;;12.48;69.17;101208.66;4121184;28;20476;-64
2023/05/06 03:44:10;;;;;;;;;;;;;;;12.49;69.37;101211.19;4121598;28;20468;-64
2023/05/06 03:46:12;;;;;;;;;;;;;;;12.43;68.78;101201.06;4122474;28;20021;-65
2023/05/06 03:48:14;;;;;;;;;;;;;;;12.39;69.21;101197.00;4115700;28;20024;-64
2023/05/06 03:50:18;;;;;;;;;;;;;;;12.35;69.67;101204.66;4113622;28;20014;-64
2023/05/06 03:52:22;;;;;;;;;;;;;;;12.39;68.97;101192.41;4113647;28;20020;-65
2023/05/06 03:54:24;;;;;;;;;;;;;;;12.38;69.35;101198.00;4115160;28;20041;-65
2023/05/06 03:56:26;;;;;;;;;;;;;;;12.37;69.63;101194.47;4115898;28;20017;-65
2023/05/06 03:58:31;;;;;;;;;;;;;;;12.39;69.47;101197.84;4113530;28;20109;-65
2023/05/06 04:00:34;;;;;;;;;;;;;;;12.35;69.37;101192.94;4113180;28;20017;-65
2023/05/06 04:02:37;;;;;;;;;;;;;;;12.40;69.48;101190.56;4113481;28;20013;-65
2023/05/06 04:04:40;;;;;;;;;;;;;;;12.34;69.09;101191.28;4122016;28;20025;-65
2023/05/06 04:06:44;;;;;;;;;;;;;;;12.36;69.10;101187.34;4120946;28;20501;-65
2023/05/06 04:08:47;;;;;;;;;;;;;;;12.36;69.38;101194.66;4121724;28;20037;-65
2023/05/06 04:10:50;;;;;;;;;;;;;;;12.27;68.97;101196.53;4121537;28;20880;-65
2023/05/06 04:13:00;;;;;;;;;;;;;;;12.19;68.66;101194.72;4105317;28;20026;-65
2023/05/06 04:15:09;;;;;;;;;;;;;;;12.14;68.82;101199.81;4113353;28;20032;-65
2023/05/06 04:17:12;;;;;;;;;;;;;;;12.16;68.89;101195.09;4115310;28;20041;-65
2023/05/06 04:19:14;;;;;;;;;;;;;;;12.10;68.75;101190.38;4122318;28;19930;-65
2023/05/06 04:21:17;;;;;;;;;;;;;;;12.11;68.76;101193.94;4113878;28;20013;-65
2023/05/06 04:23:24;;;;;;;;;;;;;;;12.07;68.64;101196.16;4106085;28;20021;-65
2023/05/06 04:25:27;;;;;;;;;;;;;;;12.07;69.00;101202.41;4105723;28;20049;-65
2023/05/06 04:27:30;;;;;;;;;;;;;;;12.03;69.25;101195.63;4122185;28;20021;-65
2023/05/06 04:29:34;;;;;;;;;;;;;;;12.06;69.44;101206.13;4112446;28;20032;-65
2023/05/06 04:31:38;;;;;;;;;;;;;;;12.07;69.24;101207.81;4120675;28;20364;-65
2023/05/06 04:33:43;;;;;;;;;;;;;;;12.05;68.83;101201.75;4121670;28;20020;-65
2023/05/06 04:35:51;;;;;;;;;;;;;;;12.06;68.93;101199.88;4113702;28;20017;-65
2023/05/06 04:37:55;;;;;;;;;;;;;;;12.06;68.71;101205.28;4114046;28;20032;-65
2023/05/06 04:40:01;;;;;;;;;;;;;;;12.06;68.71;101208.00;4121198;28;19950;-65
2023/05/06 04:42:06;;;;;;;;;;;;;;;12.01;68.81;101213.09;4109340;28;20004;-65
2023/05/06 04:44:16;;;;;;;;;;;;;;;11.93;68.68;101215.81;4120890;28;20016;-65
2023/05/06 04:46:21;;;;;;;;;;;;;;;11.90;68.96;101214.28;4121670;28;20025;-65
2023/05/06 04:48:25;;;;;;;;;;;;;;;11.93;68.81;101211.25;4113268;28;20021;-65
2023/05/06 04:50:30;;;;;;;;;;;;;;;11.94;68.69;101215.63;4121123;28;20041;-65
2023/05/06 04:52:32;;;;;;;;;;;;;;;11.97;68.51;101211.75;4114692;28;20069;-65
2023/05/06 04:54:35;;;;;;;;;;;;;;;11.93;68.08;101216.66;4114479;28;20025;-65
2023/05/06 04:56:37;;;;;;;;;;;;;;;11.91;68.53;101224.06;4121024;28;20699;-64
2023/05/06 04:58:43;;;;;;;;;;;;;;;11.89;68.42;101223.41;4112621;28;20025;-64
2023/05/06 05:00:45;;;;;;;;;;;;;;;11.90;68.77;101217.81;4112291;28;19930;-64
2023/05/06 05:02:47;;;;;;;;;;;;;;;11.96;68.45;101220.88;4120606;28;20028;-65
2023/05/06 05:04:51;;;;;;;;;;;;;;;11.99;68.48;101225.94;4112044;28;20025;-65
2023/05/06 05:06:53;;;;;;;;;;;;;;;11.99;67.86;101225.94;4119993;28;20705;-64
2023/05/06 05:08:55;;;;;;;;;;;;;;;12.04;68.20;101231.69;4121026;28;20024;-64
2023/05/06 05:10:59;;;;;;;;;;;;;;;12.01;68.12;101230.16;4119968;28;19926;-64
2023/05/06 05:13:04;;;;;;;;;;;;;;;11.99;67.68;101236.75;4113251;28;20025;-65
2023/05/06 05:15:08;;;;;;;;;;;;;;;11.92;68.21;101242.03;4111498;28;20021;-64
2023/05/06 05:17:10;;;;;;;;;;;;;;;11.89;67.82;101239.66;4120365;28;20422;-64
2023/05/06 05:19:13;;;;;;;;;;;;;;;11.87;68.07;101239.81;4121044;28;20016;-65
2023/05/06 05:21:16;;;;;;;;;;;;;;;11.84;68.42;101245.56;4112197;28;20459;-64
2023/05/06 05:23:18;;;;;;;;;;;;;;;11.88;68.65;101251.47;4111757;28;20383;-64
2023/05/06 05:25:21;;;;;;;;;;;;;;;11.88;68.43;101255.06;4120674;28;20649;-64
2023/05/06 05:27:24;;;;;;;;;;;;;;;11.93;68.83;101259.13;4112064;28;20015;-64
2023/05/06 05:29:27;;;;;;;;;;;;;;;11.97;68.62;101253.19;4111812;28;20013;-64
2023/05/06 05:31:31;;;;;;;;;;;;;;;11.98;68.51;101245.94;4112431;28;20025;-65
2023/05/06 05:33:33;;;;;;;;;;;;;;;11.96;68.40;101246.09;4104609;28;20038;-65
2023/05/06 05:35:35;;;;;;;;;;;;;;;11.97;68.29;101244.22;4103842;28;20012;-64
2023/05/06 05:37:38;;;;;;;;;;;;;;;11.94;68.23;101250.81;4113179;28;20025;-64
2023/05/06 05:39:40;;;;;;;;;;;;;;;11.97;68.29;101242.34;4111918;28;20009;-64
2023/05/06 05:41:45;;;;;;;;;;;;;;;11.96;69.26;101240.69;4111491;28;19940;-64
2023/05/06 05:43:47;;;;;;;;;;;;;;;11.97;68.81;101250.47;4119977;28;20036;-65
2023/05/06 05:45:50;;;;;;;;;;;;;;;11.99;68.77;101247.59;4119445;28;20016;-65
2023/05/06 05:47:55;;;;;;;;;;;;;;;11.99;69.15;101242.19;4111724;28;20028;-64
2023/05/06 05:49:58;;;;;;;;;;;;;;;12.01;68.44;101242.88;4112581;28;20615;-65
2023/05/06 05:52:00;;;;;;;;;;;;;;;12.02;68.55;101249.97;4089559;29;20025;-65
2023/05/06 05:54:03;;;;;;;;;;;;;;;12.02;68.14;101244.53;4119938;28;20025;-65
2023/05/06 05:56:06;;;;;;;;;;;;;;;12.02;68.34;101249.97;4120635;28;20475;-65
2023/05/06 05:58:09;;;;;;;;;;;;;;;12.05;68.17;101252.31;4120783;28;20456;-65
2023/05/06 06:00:12;;;;;;;;;;;;;;;12.08;68.02;101249.25;4113462;28;20025;-64
2023/05/06 06:02:19;;;;;;;;;;;;;;;12.08;67.53;101247.41;4112225;28;19937;-64
2023/05/06 06:04:23;;;;;;;;;;;;;;;12.07;67.28;101258.41;4111564;28;20048;-65
2023/05/06 06:06:25;;;;;;;;;;;;;;;12.06;67.63;101254.00;4113435;28;20012;-64
2023/05/06 06:08:28;;;;;;;;;;;;;;;12.04;67.23;101250.66;4110600;28;20016;-65
2023/05/06 06:10:31;;;;;;;;;;;;;;;11.98;67.39;101243.22;4111172;28;20013;-65
2023/05/06 06:12:36;;;;;;;;;;;;;;;11.98;67.53;101256.75;4112180;28;20033;-65
2023/05/06 06:14:40;;;;;;;;;;;;;;;11.98;67.54;101256.75;4111023;28;20022;-65
2023/05/06 06:16:43;;;;;;;;;;;;;;;11.95;67.37;101257.09;4110280;28;20022;-64
2023/05/06 06:18:45;;;;;;;;;;;;;;;11.95;67.19;101257.09;4103241;28;20038;-65
2023/05/06 06:20:48;;;;;;;;;;;;;;;11.93;67.09;101259.97;4112308;28;20025;-65
2023/05/06 06:22:50;;;;;;;;;;;;;;;11.92;67.45;101263.69;4111008;28;19953;-64
2023/05/06 06:24:55;;;;;;;;;;;;;;;11.97;67.54;101252.34;4118070;28;20349;-65
2023/05/06 06:26:57;;;;;;;;;;;;;;;11.95;68.30;101254.41;4119212;28;20034;-65
2023/05/06 06:28:59;;;;;;;;;;;;;;;11.94;68.56;101263.53;4118705;28;20025;-65
2023/05/06 06:31:02;;;;;;;;;;;;;;;11.92;68.94;101269.09;4105404;28;20589;-64
2023/05/06 06:33:04;;;;;;;;;;;;;;;11.93;69.05;101273.50;4110309;28;20021;-64
2023/05/06 06:35:06;;;;;;;;;;;;;;;11.96;69.10;101266.88;4110291;28;20024;-65
2023/05/06 06:37:10;;;;;;;;;;;;;;;11.96;68.67;101270.47;4111381;28;20021;-65
2023/05/06 06:39:12;;;;;;;;;;;;;;;11.89;69.41;101272.13;4110156;28;20021;-65
2023/05/06 06:41:14;;;;;;;;;;;;;;;11.85;69.18;101281.63;4109575;28;20025;-65
2023/05/06 06:43:18;;;;;;;;;;;;;;;11.79;68.63;101280.44;4110236;28;19930;-65
2023/05/06 06:45:40;;;;;;;;;;;;;;;11.79;69.20;101283.16;4110385;28;20016;-65
2023/05/06 06:47:42;;;;;;;;;;;;;;;11.73;68.87;101292.78;4112193;28;20028;-65
2023/05/06 06:49:44;;;;;;;;;;;;;;;11.72;69.16;101290.25;4111717;28;20016;-65
2023/05/06 06:51:46;;;;;;;;;;;;;;;11.77;69.04;101293.31;4110797;28;20720;-65
2023/05/06 06:53:51;;;;;;;;;;;;;;;11.81;68.64;101285.69;4112002;28;20016;-65
2023/05/06 06:55:53;;;;;;;;;;;;;;;11.82;68.97;101285.50;4112132;28;20021;-64
2023/05/06 06:57:55;;;;;;;;;;;;;;;11.83;68.86;101286.34;4112658;28;20064;-65
2023/05/06 06:59:57;;;;;;;;;;;;;;;11.82;68.74;101290.94;4112777;28;20373;-64
2023/05/06 07:01:59;;;;;;;;;;;;;;;11.77;68.83;101285.19;4110553;28;20021;-64
2023/05/06 07:04:01;;;;;;;;;;;;;;;11.77;69.22;101292.44;4111585;28;19930;-65
2023/05/06 07:06:04;;;;;;;;;;;;;;;11.80;69.22;101287.56;4111352;28;20033;-64
2023/05/06 07:08:06;;;;;;;;;;;;;;;11.80;68.82;101284.84;4110257;28;20366;-65
2023/05/06 07:10:10;;;;;;;;;;;;;;;11.75;69.04;101298.03;4110365;28;20016;-65
2023/05/06 07:12:13;;;;;;;;;;;;;;;11.77;69.10;101285.19;4113866;28;20367;-67
2023/05/06 07:14:15;;;;;;;;;;;;;;;11.75;68.88;101292.63;4111774;28;20024;-66
2023/05/06 07:16:17;;;;;;;;;;;;;;;11.78;69.04;101286.03;4113460;28;19968;-64
2023/05/06 07:18:20;;;;;;;;;;;;;;;11.79;68.79;101287.72;4114205;28;20021;-65
2023/05/06 07:20:22;;;;;;;;;;;;;;;11.78;68.52;101289.56;4120846;28;20020;-65
2023/05/06 07:22:24;;;;;;;;;;;;;;;11.72;68.93;101285.69;4114707;28;20385;-65
2023/05/06 07:24:26;;;;;;;;;;;;;;;11.73;68.70;101286.53;4114446;28;19973;-64
2023/05/06 07:26:30;;;;;;;;;;;;;;;11.76;68.79;101290.78;4114732;28;20044;-65
2023/05/06 07:28:32;;;;;;;;;;;;;;;11.77;68.96;101289.75;4114321;28;20722;-65
2023/05/06 07:30:34;;;;;;;;;;;;;;;11.80;69.00;101294.81;4115009;28;20045;-65
2023/05/06 07:32:36;;;;;;;;;;;;;;;11.81;68.96;101289.22;4113183;28;19930;-66
2023/05/06 07:34:38;;;;;;;;;;;;;;;11.81;69.17;101300.06;4114602;28;20041;-65
2023/05/06 07:36:42;;;;;;;;;;;;;;;11.87;68.73;101296.66;4113998;28;20039;-65
2023/05/06 07:38:44;;;;;;;;;;;;;;;11.89;68.41;101296.50;4114741;28;20341;-65
2023/05/06 07:40:46;;;;;;;;;;;;;;;11.87;68.92;101293.13;4114955;28;20013;-67
2023/05/06 07:42:50;;;;;;;;;;;;;;;11.81;68.42;101294.63;4114207;28;20029;-66
2023/05/06 07:44:55;;;;;;;;;;;;;;;11.76;68.89;101288.91;4110971;28;20016;-65
2023/05/06 07:46:57;;;;;;;;;;;;;;;11.76;69.33;101294.31;4114807;28;20412;-65
2023/05/06 07:48:59;;;;;;;;;;;;;;;11.78;69.31;101296.84;4114860;28;20110;-65
2023/05/06 07:51:01;;;;;;;;;;;;;;;11.81;69.83;101305.47;4114887;28;20029;-64
2023/05/06 07:53:03;;;;;;;;;;;;;;;11.83;69.93;101303.44;4112455;28;20008;-65
2023/05/06 07:55:08;;;;;;;;;;;;;;;11.85;70.49;101308.69;4113304;28;20017;-66
2023/05/06 07:57:10;;;;;;;;;;;;;;;11.90;70.11;101300.91;4114436;28;20361;-65
2023/05/06 07:59:14;;;;;;;;;;;;;;;11.90;70.40;101309.84;4114457;28;20452;-65
2023/05/06 08:01:16;;;;;;;;;;;;;;;11.90;70.22;101303.59;4114469;28;20025;-65
2023/05/06 08:03:18;;;;;;;;;;;;;;;11.87;69.25;101306.66;4113004;28;20373;-65
2023/05/06 08:05:20;;;;;;;;;;;;;;;11.85;69.60;101314.94;4112896;28;19976;-65
2023/05/06 08:07:22;;;;;;;;;;;;;;;11.81;70.21;101308.16;4113951;28;20025;-65
2023/05/06 08:09:24;;;;;;;;;;;;;;;11.82;70.50;101314.44;4113363;28;20018;-64
2023/05/06 08:11:26;;;;;;;;;;;;;;;11.79;71.02;101312.09;4110413;28;20017;-65
2023/05/06 08:13:29;;;;;;;;;;;;;;;11.79;70.49;101314.78;4111008;28;20444;-64
2023/05/06 08:15:32;;;;;;;;;;;;;;;11.80;70.74;101320.03;4113660;28;20441;-64
2023/05/06 08:17:34;;;;;;;;;;;;;;;11.83;70.79;101322.41;4121329;28;20025;-65
2023/05/06 08:19:38;;;;;;;;;;;;;;;11.85;71.01;101327.63;4114349;28;20038;-65
2023/05/06 08:21:41;;;;;;;;;;;;;;;11.88;70.99;101335.38;4105122;28;20032;-65
2023/05/06 08:23:43;;;;;;;;;;;;;;;11.89;71.33;101328.97;4120873;28;20025;-64
2023/05/06 08:25:46;;;;;;;;;;;;;;;11.88;71.63;101332.69;4112846;28;19934;-64
2023/05/06 08:27:48;;;;;;;;;;;;;;;11.88;71.89;101333.53;4112680;28;20053;-65
2023/05/06 08:29:53;;;;;;;;;;;;;;;11.89;71.81;101331.69;4113882;28;20029;-65
2023/05/06 08:31:56;;;;;;;;;;;;;;;11.91;71.49;101326.94;4113308;28;20095;-66
2023/05/06 08:33:58;;;;;;;;;;;;;;;11.89;71.44;101326.25;4113162;28;20029;-64
2023/05/06 08:36:00;;;;;;;;;;;;;;;11.84;71.31;101323.22;4112094;28;20017;-65
2023/05/06 08:38:02;;;;;;;;;;;;;;;11.83;71.77;101332.34;4114016;28;20234;-65
2023/05/06 08:40:05;;;;;;;;;;;;;;;11.80;72.23;101332.69;4113867;28;19933;-65
2023/05/06 08:42:07;;;;;;;;;;;;;;;11.78;72.14;101330.16;4110312;28;20032;-64
2023/05/06 08:44:10;;;;;;;;;;;;;;;11.81;72.39;101328.97;4109985;28;20352;-65
2023/05/06 08:46:12;;;;;;;;;;;;;;;11.81;72.60;101337.09;4113342;28;20419;-65
2023/05/06 08:48:16;;;;;;;;;;;;;;;11.76;72.55;101340.31;4111681;28;20031;-65
2023/05/06 08:50:18;;;;;;;;;;;;;;;11.76;72.47;101337.63;4113272;28;20017;-65
2023/05/06 08:52:20;;;;;;;;;;;;;;;11.78;72.79;101345.56;4113180;28;20022;-66
2023/05/06 08:54:22;;;;;;;;;;;;;;;11.83;73.27;101356.72;4114690;28;20024;-66
2023/05/06 08:56:25;;;;;;;;;;;;;;;11.85;72.65;101350.13;4113051;28;20022;-66
2023/05/06 08:58:27;;;;;;;;;;;;;;;11.84;72.64;101348.44;4113026;28;20025;-66
2023/05/06 09:00:30;;;;;;;;;;;;;;;11.83;72.79;101352.16;4113075;28;20387;-66
2023/05/06 09:02:32;;;;;;;;;;;;;;;11.84;72.77;101355.72;4112626;28;20342;-65
2023/05/06 09:04:36;;;;;;;;;;;;;;;11.82;72.42;101366.69;4112209;28;20357;-66
2023/05/06 09:06:40;;;;;;;;;;;;;;;11.80;72.64;101366.03;4111023;28;20401;-66
2023/05/06 09:08:44;;;;;;;;;;;;;;;11.79;72.74;101363.50;4113452;28;20452;-66
2023/05/06 09:10:47;;;;;;;;;;;;;;;11.81;72.79;101370.41;4111561;28;20032;-66
2023/05/06 09:12:49;;;;;;;;;;;;;;;11.84;72.97;101370.06;4111106;28;20368;-66
2023/05/06 09:14:51;;;;;;;;;;;;;;;11.89;72.66;101361.44;4112184;28;20021;-66
2023/05/06 09:16:53;;;;;;;;;;;;;;;11.95;72.87;101362.66;4112229;28;20020;-67
2023/05/06 09:18:55;;;;;;;;;;;;;;;12.00;72.06;101363.00;4113799;28;20643;-63
2023/05/06 09:20:58;;;;;;;;;;;;;;;11.99;71.91;101362.16;4123183;28;19961;-65
2023/05/06 09:23:00;;;;;;;;;;;;;;;11.94;71.02;101361.81;4120768;28;19980;-65
2023/05/06 09:25:02;;;;;;;;;;;;;;;11.88;70.75;101368.72;4112402;28;20053;-66
2023/05/06 09:27:04;;;;;;;;;;;;;;;11.85;71.87;101368.25;4113176;28;19926;-65
2023/05/06 09:29:07;;;;;;;;;;;;;;;11.82;71.25;101371.28;4111768;28;20025;-65
2023/05/06 09:31:09;;;;;;;;;;;;;;;11.79;71.71;101374.31;4112935;28;20033;-66
2023/05/06 09:33:11;;;;;;;;;;;;;;;11.82;71.54;101379.41;4112205;28;19965;-66
2023/05/06 09:35:13;;;;;;;;;;;;;;;11.85;71.37;101370.94;4112365;28;20010;-67
2023/05/06 09:37:16;;;;;;;;;;;;;;;11.82;71.14;101374.81;4113104;28;20021;-66
2023/05/06 09:39:18;;;;;;;;;;;;;;;11.83;71.19;101373.81;4112828;28;20009;-67
2023/05/06 09:41:21;;;;;;;;;;;;;;;11.85;71.17;101366.38;4111275;28;20024;-66
2023/05/06 09:43:23;;;;;;;;;;;;;;;11.83;71.32;101373.81;4110614;28;20032;-68
2023/05/06 09:45:26;;;;;;;;;;;;;;;11.88;71.39;101384.09;4110892;28;20028;-68
2023/05/06 09:47:34;;;;;;;;;;;;;;;11.89;71.22;101369.56;4110649;28;19930;-68
2023/05/06 09:49:36;;;;;;;;;;;;;;;11.90;70.88;101379.38;4110868;28;20156;-62
2023/05/06 09:51:40;;;;;;;;;;;;;;;11.94;70.30;101372.63;4110921;28;20016;-66
2023/05/06 09:53:46;;;;;;;;;;;;;;;11.95;70.28;101378.91;4110636;28;20570;-66
2023/05/06 09:55:48;;;;;;;;;;;;;;;11.89;70.13;101375.81;4112280;28;20451;-66
2023/05/06 09:57:50;;;;;;;;;;;;;;;11.87;70.51;101383.28;4113201;28;20017;-66
2023/05/06 09:59:52;;;;;;;;;;;;;;;11.87;70.94;101385.16;4112142;28;20037;-66
2023/05/06 10:01:54;;;;;;;;;;;;;;;11.89;71.38;101386.66;4112531;28;20021;-65
2023/05/06 10:03:57;;;;;;;;;;;;;;;11.90;71.02;101388.34;4112058;28;20029;-66
2023/05/06 10:06:01;;;;;;;;;;;;;;;11.93;71.46;101397.16;4111812;28;20020;-66
2023/05/06 10:08:03;;;;;;;;;;;;;;;11.89;71.85;101389.34;4119550;28;20449;-66
2023/05/06 10:10:08;;;;;;;;;;;;;;;11.91;71.33;101386.47;4112130;28;20123;-65
2023/05/06 10:12:10;;;;;;;;;;;;;;;11.92;70.86;101385.50;4112122;28;20029;-65
2023/05/06 10:14:12;;;;;;;;;;;;;;;11.96;70.97;101391.41;4112249;28;20050;-66
2023/05/06 10:16:14;;;;;;;;;;;;;;;11.95;71.18;101390.56;4112147;28;20029;-63
2023/05/06 10:18:17;;;;;;;;;;;;;;;11.93;71.55;101391.75;4111381;28;20029;-66
2023/05/06 10:20:19;;;;;;;;;;;;;;;11.89;72.15;101383.94;4113600;28;20057;-66
2023/05/06 10:22:22;;;;;;;;;;;;;;;11.89;72.15;101383.94;4112480;28;20029;-65
2023/05/06 10:24:27;;;;;;;;;;;;;;;11.88;71.76;101387.69;4119643;28;20025;-66
2023/05/06 10:26:30;;;;;;;;;;;;;;;11.93;71.59;101391.75;4112487;28;20480;-66
2023/05/06 10:28:33;;;;;;;;;;;;;;;11.95;71.40;101390.56;4112974;28;20296;-67
2023/05/06 10:30:36;;;;;;;;;;;;;;;11.97;71.18;101393.94;4109348;28;20024;-66